Etusivu
METAR-TAF:

METAR-TAF

Lentoasemat :

Al Wajh, Saudi-Arabia

Leveyspiiri: 26-12N, Pituuspiiri: 036-28E, korkeus merenpinnasta: 20 m

Tämänhetkinen sää

Tämä raportti tehtiin 47 minuuttia sitten, kello 22.00 UTC
Tuuli 5 kn lännestä
Lämpötila 18°C
Kosteus 88%
Ilmanpaine 1012 hPa
Näkyvyys 10 km tai enemmän
ei pilviä alle 1500 m:ssä eikä cumulonimbus-pilviä

METAR: OEWJ 282200Z 27005KT CAVOK 18/16 Q1012 NOSIG

Aika: 01:47 (22:47 UTC)

Sääennuste

Tämä raportti tehtiin 11 tuntia ja 47 minuuttia sitten, kello 11.00 UTC
Ennuste voimassa 28. päivästä klo 12 UTC - 29. päivään klo 18 UTC
Tuuli 13 kn lännestä/luoteesta
Näkyvyys 10 km tai enemmän
ei pilviä alle 1500 m:ssä eikä cumulonimbus-pilviä
Tulossa
28. päivästä klo 18 UTC - 28. päivään klo 20 UTC
Tuuli 6 kn pohjoisesta

TAF: OEWJ 281100Z 2812/2918 30013KT CAVOK BECMG 2818/2820 36006KT

Säähavainnot ja -ennusteet yli 4000 lentoasemalta (METAR- ja TAF-raportit).

Käytössä olevat sääasemat on merkitty karttaan keltaisilla ja punaisilla pisteillä.

Aseta hiiri pisteen päälle nähdäksesi sääaseman nimen.

Klikkaa sitten nähdäksesi säähavainnot ja -ennusteet.

Kartan vaihtaminen: klikkaa mustalla rastilla varustettuja vihreitä pisteitä, niin voit zoomata sisään; viivalla varustettua vihreää pistettä, niin voit zoomata ulos tai vihreitä nuolia, niin pääset viereisille kartoille.


METAR-TAF: